Terminal Aerodrome Forecast
Issued by NWS

Home | Current Version | Previous Version | Text Only | Print | Product List | Glossary On
Versions: 1 2 3 4 5 6 7 8 9 10 11 12 13 14 15 16
940
FTUS42 KFFC 270526
TAFPDK
TAF
KPDK 270526Z 2706/2806 00000KT P6SM BKN120
     FM271300 34008KT P6SM SCT050 SCT250
     FM280200 VRB03KT P6SM SKC=

USA.gov is the U.S. government's official web portal to all federal, state and local government web resources and services.